Time;durP1;ratioP1;P1;durP2;ratioP2;P2;SDS_P1;SDS_P2;PMS_P1;PMS_P2;Temp;Humidity;BMP_temperature;BMP_pressure;BME280_temperature;BME280_humidity;BME280_pressure;Samples;Min_cycle;Max_cycle;Signal;HPM_P1;HPM_P2
2021/08/06 12:05:27;;;;;;;1.77;1.07;;;;;;;22.29;54.61;97471.84;5071205;28;20550;-60
2021/08/06 12:07:54;;;;;;;5.33;1.50;;;;;;;22.96;53.08;97484.88;5070491;28;20200;-59
2021/08/06 12:10:25;;;;;;;2.83;1.07;;;;;;;23.22;52.53;97477.72;5070243;28;20188;-59
2021/08/06 12:12:53;;;;;;;1.27;1.17;;;;;;;23.48;51.79;97481.25;5070092;28;20212;-59
2021/08/06 12:15:25;;;;;;;2.30;1.17;;;;;;;23.77;51.03;97484.31;5070152;28;20342;-59
2021/08/06 12:18:14;;;;;;;3.07;1.20;;;;;;;23.95;50.46;97482.69;5069979;28;20189;-59
2021/08/06 12:20:48;;;;;;;1.17;1.07;;;;;;;24.08;50.23;97479.09;5070074;28;20169;-59
2021/08/06 12:23:18;;;;;;;1.27;1.10;;;;;;;23.99;50.32;97481.22;5070009;28;20262;-57
2021/08/06 12:26:07;;;;;;;1.30;1.20;;;;;;;24.06;50.10;97487.34;5070427;28;20227;-59
2021/08/06 12:28:36;;;;;;;1.87;1.10;;;;;;;24.15;50.07;97487.03;5069916;28;20211;-57
2021/08/06 12:31:27;;;;;;;2.03;1.10;;;;;;;24.18;49.66;97487.41;5069954;28;20663;-56
2021/08/06 12:34:11;;;;;;;1.80;1.10;;;;;;;24.20;49.56;97495.16;5066171;28;20228;-57
2021/08/06 12:36:50;;;;;;;2.13;1.10;;;;;;;24.23;49.71;97494.75;5070132;28;20231;-57
2021/08/06 12:39:17;;;;;;;1.87;1.10;;;;;;;24.31;49.50;97496.31;5068777;28;20522;-57
2021/08/06 12:41:47;;;;;;;1.30;1.00;;;;;;;24.39;49.26;97501.31;5068398;28;20203;-54
2021/08/06 12:44:34;;;;;;;2.87;0.97;;;;;;;24.42;48.95;97505.41;5069360;28;20297;-54
2021/08/06 12:47:12;;;;;;;1.30;1.20;;;;;;;24.44;48.92;97509.47;5070018;28;20169;-57
2021/08/06 12:50:01;;;;;;;2.40;1.20;;;;;;;24.43;48.99;97512.38;5069467;28;20245;-56
2021/08/06 12:52:30;;;;;;;1.33;1.13;;;;;;;24.41;49.05;97509.13;5067944;28;20213;-54
2021/08/06 12:55:00;;;;;;;1.07;0.90;;;;;;;24.50;48.88;97511.25;5069286;28;20192;-57
2021/08/06 12:57:46;;;;;;;2.53;1.10;;;;;;;24.46;48.74;97514.59;5069792;28;20176;-58
2021/08/06 13:00:32;;;;;;;1.50;0.90;;;;;;;24.43;49.06;97513.16;5069167;28;20267;-57
2021/08/06 13:03:15;;;;;;;2.40;1.17;;;;;;;24.45;48.79;97510.28;5069043;28;20266;-55
2021/08/06 13:05:56;;;;;;;1.17;1.00;;;;;;;24.47;48.43;97516.22;5067843;28;20193;-57
2021/08/06 13:08:30;;;;;;;1.47;0.97;;;;;;;24.52;48.42;97511.84;5069457;28;20181;-55
2021/08/06 13:11:03;;;;;;;1.37;1.20;;;;;;;24.62;48.25;97505.97;5069312;28;20181;-55
2021/08/06 13:13:42;;;;;;;2.03;1.00;;;;;;;24.69;48.15;97505.91;5068008;28;20730;-56
2021/08/06 13:16:11;;;;;;;1.40;1.13;;;;;;;24.73;47.98;97511.59;5059661;28;20235;-55
2021/08/06 13:18:38;;;;;;;1.07;0.90;;;;;;;24.72;47.81;97509.97;5055909;28;20188;-57
2021/08/06 13:21:05;;;;;;;1.00;0.90;;;;;;;24.83;47.73;97517.22;5055870;28;20598;-55
2021/08/06 13:23:33;;;;;;;1.63;1.30;;;;;;;24.93;47.45;97511.38;5055324;28;20205;-54
2021/08/06 13:26:00;;;;;;;2.23;1.20;;;;;;;24.86;47.70;97503.47;5055444;28;20197;-55
2021/08/06 13:28:27;;;;;;;1.27;1.00;;;;;;;24.86;47.59;97499.97;5055374;28;20664;-53
2021/08/06 13:30:53;;;;;;;2.67;1.20;;;;;;;24.92;47.41;97505.22;5055327;28;20193;-56
2021/08/06 13:33:20;;;;;;;1.67;1.20;;;;;;;24.87;47.29;97505.09;5055209;28;20212;-53
2021/08/06 13:35:46;;;;;;;1.53;1.10;;;;;;;24.86;47.46;97505.31;5055801;28;20239;-55
2021/08/06 13:38:13;;;;;;;1.67;1.20;;;;;;;24.84;47.38;97502.84;5054215;28;20193;-56
2021/08/06 13:40:40;;;;;;;0.80;0.80;;;;;;;24.84;47.60;97510.84;5055398;28;20190;-57
2021/08/06 13:43:09;;;;;;;1.43;0.97;;;;;;;24.97;47.45;97511.72;5055048;28;20579;-54
2021/08/06 13:45:36;;;;;;;1.30;1.07;;;;;;;25.04;47.13;97501.78;5055475;28;20201;-56
2021/08/06 13:48:05;;;;;;;1.33;1.13;;;;;;;25.31;46.68;97496.03;5054934;28;20196;-55
2021/08/06 13:50:34;;;;;;;1.40;1.30;;;;;;;25.49;45.91;97497.84;5054981;28;20190;-58
2021/08/06 14:09:49;;;;;;;1.13;1.03;;;;;;;24.44;48.00;97498.00;5039931;28;20320;-82
2021/08/06 14:13:07;;;;;;;1.90;1.00;;;;;;;24.40;47.60;97508.28;5044048;28;20252;-82
2021/08/06 14:16:24;;;;;;;1.23;1.10;;;;;;;24.23;47.92;97500.88;5041819;28;20195;-82
2021/08/06 14:19:39;;;;;;;2.10;1.13;;;;;;;24.12;48.47;97504.28;5043106;28;20191;-82
2021/08/06 14:22:54;;;;;;;1.03;0.80;;;;;;;24.10;48.46;97499.19;5040759;28;20192;-84
2021/08/06 14:25:20;;;;;;;1.47;1.00;;;;;;;24.18;48.29;97499.91;5033150;28;20210;-84
2021/08/06 14:27:47;;;;;;;1.20;1.00;;;;;;;24.25;48.21;97500.66;5033849;28;20568;-83
2021/08/06 14:30:14;;;;;;;2.40;0.97;;;;;;;24.24;48.04;97496.38;5052225;28;20189;-83
2021/08/06 14:32:41;;;;;;;1.40;1.17;;;;;;;24.20;48.43;97492.50;5037580;28;20190;-84
2021/08/06 14:35:08;;;;;;;1.47;1.13;;;;;;;24.24;48.19;97494.50;5050757;28;20189;-83
2021/08/06 14:37:35;;;;;;;1.40;1.20;;;;;;;24.26;47.96;97501.47;5048207;28;20255;-84
2021/08/06 14:40:02;;;;;;;1.13;1.03;;;;;;;24.27;48.12;97498.59;5028910;28;20201;-83
2021/08/06 14:42:29;;;;;;;1.33;1.00;;;;;;;24.24;48.14;97501.72;5039611;28;20228;-84
2021/08/06 14:45:00;;;;;;;1.17;1.00;;;;;;;24.21;48.34;97508.28;5040806;28;20213;-86
2021/08/06 14:47:28;;;;;;;1.57;1.20;;;;;;;24.14;48.15;97498.72;5039631;28;20536;-85
2021/08/06 14:49:55;;;;;;;1.30;1.00;;;;;;;24.11;48.14;97510.63;5039939;28;20201;-86
2021/08/06 14:52:21;;;;;;;1.10;1.00;;;;;;;24.06;48.27;97503.31;5039217;28;20701;-84
2021/08/06 14:54:48;;;;;;;2.80;1.10;;;;;;;24.10;48.20;97504.50;5040093;28;20193;-84
2021/08/06 14:57:14;;;;;;;4.77;1.20;;;;;;;24.03;48.20;97511.75;5036624;28;20186;-82
2021/08/06 14:59:41;;;;;;;2.43;1.00;;;;;;;24.06;48.11;97508.66;5036502;28;20193;-83
2021/08/06 15:02:07;;;;;;;1.83;1.10;;;;;;;24.12;48.00;97504.28;5035330;28;20628;-82
2021/08/06 15:04:36;;;;;;;1.17;1.00;;;;;;;24.18;47.80;97500.75;5035147;28;20525;-82
2021/08/06 15:07:05;;;;;;;1.53;1.03;;;;;;;24.28;47.25;97504.72;5035937;28;20489;-82
2021/08/06 15:09:31;;;;;;;1.10;0.97;;;;;;;24.34;47.43;97509.19;5036850;28;20252;-85
2021/08/06 15:11:58;;;;;;;1.60;1.00;;;;;;;24.36;47.40;97501.78;5035122;28;20197;-82
2021/08/06 15:14:26;;;;;;;2.10;0.90;;;;;;;24.33;47.41;97502.22;5036652;28;20688;-82
2021/08/06 15:16:52;;;;;;;1.03;0.90;;;;;;;24.34;47.25;97493.97;5036841;28;20356;-81
2021/08/06 15:19:19;;;;;;;1.00;0.90;;;;;;;24.28;47.49;97499.38;5037115;28;20509;-83
2021/08/06 15:21:46;;;;;;;2.63;1.10;;;;;;;24.20;47.65;97505.84;5037623;28;20248;-82
2021/08/06 15:24:12;;;;;;;1.80;0.80;;;;;;;24.21;47.66;97504.81;5037251;28;20202;-81
2021/08/06 15:26:40;;;;;;;1.17;0.80;;;;;;;24.22;47.29;97517.13;5038626;28;20520;-82
2021/08/06 15:29:07;;;;;;;3.10;1.10;;;;;;;24.30;47.14;97510.66;5020514;28;20202;-83
2021/08/06 15:31:33;;;;;;;2.67;1.13;;;;;;;24.24;47.17;97501.72;5037174;28;20269;-81
2021/08/06 15:34:01;;;;;;;4.53;1.10;;;;;;;24.20;47.37;97514.66;5020010;28;20190;-82
2021/08/06 15:36:27;;;;;;;1.17;0.80;;;;;;;24.09;47.61;97502.06;5036289;28;20539;-81
2021/08/06 15:38:54;;;;;;;1.70;0.60;;;;;;;24.01;47.40;97508.44;5036063;28;20650;-82
2021/08/06 15:41:20;;;;;;;0.83;0.73;;;;;;;23.98;47.21;97505.44;5039882;28;20212;-82
2021/08/06 15:43:50;;;;;;;1.40;0.83;;;;;;;24.07;46.78;97518.28;5059731;28;20189;-82
2021/08/06 15:46:17;;;;;;;2.57;0.70;;;;;;;24.09;46.61;97510.88;5041073;28;20288;-81
2021/08/06 15:48:44;;;;;;;2.20;0.70;;;;;;;24.26;46.19;97518.28;5058704;28;20553;-82
2021/08/06 15:51:11;;;;;;;1.50;0.60;;;;;;;24.12;46.30;97516.78;5041166;28;20538;-80
2021/08/06 15:53:39;;;;;;;3.57;0.90;;;;;;;24.12;46.40;97522.13;5041361;28;20383;-81
2021/08/06 15:56:05;;;;;;;1.33;0.80;;;;;;;23.95;46.91;97522.66;5057070;28;20266;-81
2021/08/06 15:58:32;;;;;;;1.00;0.60;;;;;;;23.92;47.08;97528.44;5039444;28;20185;-82
2021/08/06 16:00:59;;;;;;;0.70;0.70;;;;;;;23.92;46.83;97520.44;5038925;28;20222;-82
2021/08/06 16:03:26;;;;;;;2.27;0.60;;;;;;;24.07;46.94;97520.94;5022429;28;20548;-81
2021/08/06 16:05:52;;;;;;;0.70;0.60;;;;;;;24.11;46.71;97529.28;5057063;28;20208;-81
2021/08/06 16:08:20;;;;;;;0.90;0.73;;;;;;;24.20;46.45;97519.97;5039563;28;20201;-82
2021/08/06 16:10:47;;;;;;;0.93;0.73;;;;;;;24.25;46.18;97532.66;5055843;28;20598;-83
2021/08/06 16:13:14;;;;;;;0.80;0.70;;;;;;;24.40;45.82;97516.28;5039622;28;20197;-81
2021/08/06 16:15:41;;;;;;;1.43;0.80;;;;;;;24.42;45.53;97524.06;5023954;28;20659;-81
2021/08/06 16:18:09;;;;;;;1.00;0.70;;;;;;;24.44;45.50;97520.13;5022544;28;20625;-82
2021/08/06 16:20:38;;;;;;;0.87;0.60;;;;;;;24.47;45.56;97530.38;5039616;28;20201;-81
2021/08/06 16:23:06;;;;;;;1.67;0.70;;;;;;;24.58;45.49;97520.81;5039250;28;20193;-82
2021/08/06 16:25:33;;;;;;;4.30;0.90;;;;;;;24.50;45.52;97523.75;5023388;28;20220;-85
2021/08/06 16:28:00;;;;;;;2.83;0.70;;;;;;;24.48;45.62;97520.50;5023533;28;20300;-84
2021/08/06 16:30:47;;;;;;;0.60;0.60;;;;;;;24.53;45.74;97518.81;5055779;28;20595;-84
2021/08/06 16:33:14;;;;;;;0.70;0.70;;;;;;;24.57;45.90;97521.84;5040560;28;20197;-82
2021/08/06 16:35:41;;;;;;;1.07;0.70;;;;;;;24.56;45.80;97517.56;5039778;28;20200;-84
2021/08/06 16:38:07;;;;;;;1.43;0.80;;;;;;;24.61;46.06;97512.34;5057949;28;20193;-83
2021/08/06 16:40:35;;;;;;;0.87;0.70;;;;;;;24.64;45.92;97509.22;5023556;28;20201;-83
2021/08/06 16:43:03;;;;;;;0.80;0.70;;;;;;;24.59;46.11;97511.75;5040021;28;20200;-83
2021/08/06 16:45:29;;;;;;;1.60;0.70;;;;;;;24.53;46.37;97516.13;5057776;28;20622;-83
2021/08/06 16:47:56;;;;;;;1.67;0.70;;;;;;;24.51;46.29;97509.38;5024092;28;20206;-83
2021/08/06 16:50:22;;;;;;;1.27;0.90;;;;;;;24.52;46.29;97519.00;5040364;28;20687;-83
2021/08/06 16:52:49;;;;;;;1.80;0.70;;;;;;;24.71;45.80;97505.69;5045300;28;20195;-84
2021/08/06 16:55:17;;;;;;;1.53;0.60;;;;;;;24.98;45.13;97505.34;5048272;28;20201;-83
2021/08/06 16:57:43;;;;;;;1.47;0.60;;;;;;;24.95;44.99;97502.09;5042910;28;20212;-85
2021/08/06 17:00:10;;;;;;;2.17;0.70;;;;;;;25.09;44.52;97507.25;5025969;28;20189;-83
2021/08/06 17:02:42;;;;;;;1.53;0.70;;;;;;;25.12;44.51;97504.13;5042767;28;20193;-84
2021/08/06 17:05:12;;;;;;;1.90;0.80;;;;;;;25.06;44.47;97505.84;5026726;28;20681;-83
2021/08/06 17:07:38;;;;;;;1.10;0.77;;;;;;;25.03;44.47;97513.50;5059970;28;20194;-84
2021/08/06 17:10:06;;;;;;;1.57;0.87;;;;;;;24.93;44.88;97504.16;5026974;28;20208;-84
2021/08/06 17:12:33;;;;;;;1.77;0.90;;;;;;;24.86;45.24;97506.13;5027046;28;20268;-83
2021/08/06 17:15:00;;;;;;;1.83;0.80;;;;;;;24.82;45.34;97507.59;5042902;28;20190;-83
2021/08/06 17:17:27;;;;;;;0.97;0.70;;;;;;;24.70;45.48;97501.38;5042436;28;20198;-83
2021/08/06 17:19:53;;;;;;;1.27;0.70;;;;;;;24.56;45.78;97506.06;5059607;28;20196;-83
2021/08/06 17:22:20;;;;;;;1.03;0.67;;;;;;;24.48;46.14;97507.16;5042105;28;20190;-81
2021/08/06 17:24:47;;;;;;;1.33;0.70;;;;;;;24.40;46.46;97508.28;5041714;28;20597;-83
2021/08/06 17:27:14;;;;;;;1.07;0.80;;;;;;;24.29;46.75;97511.72;5059250;28;20262;-83
2021/08/06 17:29:40;;;;;;;3.20;0.93;;;;;;;24.30;46.58;97506.13;5060110;28;20185;-82
2021/08/06 17:32:08;;;;;;;1.40;1.00;;;;;;;24.28;46.78;97505.56;5025658;28;20208;-82
2021/08/06 17:34:35;;;;;;;1.33;0.80;;;;;;;24.40;46.76;97505.63;5043142;28;20230;-83
2021/08/06 17:37:02;;;;;;;3.13;0.90;;;;;;;24.43;46.50;97512.38;5044645;28;20200;-85
2021/08/06 17:39:29;;;;;;;1.60;0.80;;;;;;;24.37;46.67;97509.56;5049048;28;20205;-84
2021/08/06 17:41:56;;;;;;;2.47;1.10;;;;;;;24.23;47.16;97511.53;5055160;28;20201;-84
2021/08/06 17:44:22;;;;;;;4.53;1.07;;;;;;;24.17;47.05;97506.28;5070458;28;20182;-81
2021/08/06 17:46:49;;;;;;;2.30;0.90;;;;;;;24.13;47.38;97513.91;5052022;28;20193;-82
2021/08/06 17:49:16;;;;;;;1.27;0.90;;;;;;;24.10;47.18;97509.84;5051476;28;20216;-80
2021/08/06 17:51:42;;;;;;;1.20;1.10;;;;;;;24.07;46.90;97506.78;5034490;28;20565;-81
2021/08/06 17:54:09;;;;;;;1.50;0.90;;;;;;;23.99;47.23;97515.84;5043617;28;20618;-81
2021/08/06 17:56:35;;;;;;;1.00;1.00;;;;;;;23.99;47.13;97505.19;5061058;28;20193;-82
2021/08/06 17:59:02;;;;;;;2.30;1.47;;;;;;;23.98;47.05;97503.56;5030267;28;20274;-83
2021/08/06 18:01:29;;;;;;;1.60;1.50;;;;;;;23.99;46.87;97507.06;5045718;28;20666;-82
2021/08/06 18:03:55;;;;;;;1.37;1.20;;;;;;;23.97;46.97;97504.59;5047305;28;20198;-81
2021/08/06 18:06:22;;;;;;;4.43;1.10;;;;;;;23.95;47.22;97501.34;5042852;28;20243;-87
2021/08/06 18:08:48;;;;;;;1.20;1.00;;;;;;;23.96;47.59;97502.97;5024344;28;20201;-87
2021/08/06 18:11:18;;;;;;;1.57;1.10;;;;;;;23.95;47.49;97512.00;5058257;28;20197;-86
2021/08/06 18:13:44;;;;;;;2.07;1.30;;;;;;;23.94;47.69;97513.84;5039976;28;20193;-86
2021/08/06 18:16:11;;;;;;;1.30;1.20;;;;;;;23.94;47.61;97513.03;5045549;28;20284;-86
2021/08/06 18:18:38;;;;;;;1.87;1.10;;;;;;;23.98;47.52;97514.22;5056673;28;20196;-87
2021/08/06 18:21:05;;;;;;;3.13;1.20;;;;;;;23.98;47.48;97516.88;5061455;28;20193;-86
2021/08/06 18:23:32;;;;;;;1.60;1.07;;;;;;;23.99;47.48;97517.72;5025677;28;20200;-89
2021/08/06 18:25:59;;;;;;;1.37;0.90;;;;;;;24.00;47.70;97520.16;5027174;28;20231;-88
2021/08/06 18:28:28;;;;;;;1.63;1.00;;;;;;;24.06;47.66;97515.81;5038800;28;20197;-87
2021/08/06 18:30:56;;;;;;;1.40;1.00;;;;;;;24.12;47.65;97512.25;5022293;28;20202;-87
2021/08/06 18:33:23;;;;;;;1.73;1.07;;;;;;;24.17;47.68;97511.59;5039108;28;20197;-87
2021/08/06 18:35:50;;;;;;;1.17;1.10;;;;;;;24.22;47.45;97517.91;5044270;28;20185;-88
2021/08/06 18:38:17;;;;;;;1.93;1.07;;;;;;;24.30;47.24;97518.66;5039728;28;20205;-87
2021/08/06 18:40:44;;;;;;;1.27;1.07;;;;;;;24.32;47.34;97517.41;5040272;28;20193;-87
2021/08/06 18:43:10;;;;;;;2.77;1.03;;;;;;;24.37;47.10;97514.91;5041292;28;20200;-87
2021/08/06 18:45:37;;;;;;;3.23;1.03;;;;;;;24.42;47.23;97521.41;5040074;28;20224;-87
2021/08/06 18:48:04;;;;;;;1.10;0.90;;;;;;;24.48;47.17;97525.84;5056853;28;20225;-87
2021/08/06 18:50:32;;;;;;;0.80;0.80;;;;;;;24.50;47.08;97524.59;5055043;28;20189;-87
2021/08/06 18:53:03;;;;;;;0.80;0.80;;;;;;;24.47;47.28;97521.53;5021799;28;20193;-87
2021/08/06 18:55:31;;;;;;;1.17;0.97;;;;;;;24.47;47.29;97524.22;5038546;28;20188;-87
2021/08/06 18:57:57;;;;;;;1.10;0.80;;;;;;;24.46;47.34;97527.91;5055889;28;20201;-86
2021/08/06 19:00:25;;;;;;;1.60;0.80;;;;;;;24.48;47.06;97518.66;5022515;28;20196;-87
2021/08/06 19:03:05;;;;;;;1.17;0.90;;;;;;;24.43;47.23;97523.84;5039580;28;20192;-84
2021/08/06 19:05:33;;;;;;;3.27;1.03;;;;;;;24.40;47.61;97529.63;5038394;28;20248;-84
2021/08/06 19:08:00;;;;;;;2.93;0.97;;;;;;;24.42;47.64;97532.06;5054617;28;20202;-86
2021/08/06 19:10:28;;;;;;;1.77;0.87;;;;;;;24.41;47.35;97531.25;5055391;28;20194;-86
2021/08/06 19:12:54;;;;;;;1.37;0.93;;;;;;;24.42;47.56;97535.53;5054274;28;20618;-86
2021/08/06 19:15:21;;;;;;;1.30;0.90;;;;;;;24.43;47.61;97534.50;5039279;28;20193;-86
2021/08/06 19:17:47;;;;;;;0.80;0.80;;;;;;;24.43;47.72;97536.38;5022807;28;20193;-86
2021/08/06 19:20:14;;;;;;;1.47;0.90;;;;;;;24.44;47.59;97538.00;5037818;28;20197;-86
2021/08/06 19:22:41;;;;;;;1.30;0.80;;;;;;;24.44;47.61;97535.31;5038470;28;20645;-86
2021/08/06 19:25:08;;;;;;;1.20;1.10;;;;;;;24.43;47.88;97539.03;5038444;28;20268;-86
2021/08/06 19:27:34;;;;;;;0.60;0.60;;;;;;;24.44;47.61;97548.66;5022114;28;20201;-86
2021/08/06 19:30:01;;;;;;;1.90;0.80;;;;;;;24.46;47.77;97543.91;5055795;28;20189;-86
2021/08/06 19:32:32;;;;;;;0.77;0.77;;;;;;;24.47;47.62;97545.53;5037706;28;20189;-85
2021/08/06 19:34:59;;;;;;;2.00;1.17;;;;;;;24.45;47.88;97552.97;5037837;28;20549;-85
2021/08/06 19:37:25;;;;;;;0.90;0.90;;;;;;;24.45;47.40;97558.28;5037477;28;20203;-85
2021/08/06 19:39:52;;;;;;;0.93;0.80;;;;;;;24.37;47.85;97554.06;5037294;28;20204;-87
2021/08/06 19:42:18;;;;;;;0.87;0.87;;;;;;;24.35;47.70;97554.28;5038077;28;20248;-86
2021/08/06 19:44:45;;;;;;;0.97;0.80;;;;;;;24.36;47.71;97555.09;5039988;28;20717;-87
2021/08/06 19:47:11;;;;;;;1.60;0.83;;;;;;;24.37;47.81;97567.41;5037320;28;20207;-86
2021/08/06 19:49:39;;;;;;;1.00;0.90;;;;;;;24.34;47.63;97565.97;5037215;28;20193;-86
2021/08/06 19:52:06;;;;;;;1.60;0.90;;;;;;;24.33;47.82;97567.00;5037156;28;20212;-86
2021/08/06 19:54:32;;;;;;;1.03;0.70;;;;;;;24.36;47.69;97566.56;5037647;28;20193;-87
2021/08/06 19:57:00;;;;;;;1.73;0.80;;;;;;;24.35;47.74;97564.94;5037857;28;20587;-87
2021/08/06 19:59:27;;;;;;;2.03;0.80;;;;;;;24.31;47.70;97566.41;5037247;28;20223;-86
2021/08/06 20:01:54;;;;;;;0.80;0.80;;;;;;;24.28;47.74;97558.88;5020826;28;20193;-86
2021/08/06 20:04:21;;;;;;;1.10;0.80;;;;;;;24.25;48.08;97559.31;5055583;28;20220;-85
2021/08/06 20:06:47;;;;;;;1.23;0.70;;;;;;;24.23;48.27;97558.72;5036990;28;20223;-85
2021/08/06 20:09:14;;;;;;;0.73;0.70;;;;;;;24.24;48.00;97561.16;5037440;28;20207;-86
2021/08/06 20:11:42;;;;;;;1.03;0.90;;;;;;;24.24;47.94;97557.69;5037017;28;20634;-86
2021/08/06 20:14:09;;;;;;;0.67;0.67;;;;;;;24.23;48.10;97561.41;5036862;28;20204;-86
2021/08/06 20:16:35;;;;;;;1.00;0.80;;;;;;;24.25;47.97;97559.31;5054811;28;20181;-86
2021/08/06 20:19:02;;;;;;;0.80;0.80;;;;;;;24.26;48.03;97566.28;5037491;28;20193;-86
2021/08/06 20:21:29;;;;;;;1.10;0.90;;;;;;;24.26;48.03;97563.63;5037195;28;20276;-86
2021/08/06 20:23:55;;;;;;;1.23;0.80;;;;;;;24.24;47.86;97563.81;5036844;28;20194;-86
2021/08/06 20:26:22;;;;;;;0.83;0.70;;;;;;;24.24;47.99;97565.69;5039169;28;20212;-86
2021/08/06 20:28:49;;;;;;;0.80;0.80;;;;;;;24.18;48.13;97564.72;5041288;28;20515;-86
2021/08/06 20:31:15;;;;;;;0.73;0.73;;;;;;;24.17;48.18;97572.91;5041353;28;20190;-86
2021/08/06 20:33:42;;;;;;;0.60;0.60;;;;;;;24.18;47.89;97561.22;5042066;28;20209;-85
2021/08/06 20:36:09;;;;;;;1.93;0.90;;;;;;;24.13;48.03;97561.91;5045077;28;20186;-85
2021/08/06 20:38:38;;;;;;;0.80;0.80;;;;;;;24.05;48.43;97565.66;5043566;28;20208;-85
2021/08/06 20:41:06;;;;;;;0.60;0.60;;;;;;;24.10;48.33;97560.47;5040650;28;20197;-85
2021/08/06 20:43:34;;;;;;;0.83;0.83;;;;;;;24.08;48.24;97559.88;5058218;28;20276;-85
2021/08/06 20:46:01;;;;;;;1.30;0.90;;;;;;;24.08;48.45;97559.06;5025533;28;20267;-86
2021/08/06 20:48:28;;;;;;;0.60;0.60;;;;;;;24.13;48.14;97561.06;5040602;28;20197;-86
2021/08/06 20:50:55;;;;;;;0.80;0.80;;;;;;;24.12;48.30;97562.09;5040940;28;20255;-86
2021/08/06 20:53:21;;;;;;;0.70;0.70;;;;;;;24.12;48.38;97559.44;5041433;28;20205;-86
2021/08/06 20:55:48;;;;;;;0.97;0.70;;;;;;;24.13;48.09;97556.56;5040803;28;20209;-86
2021/08/06 20:58:15;;;;;;;0.67;0.67;;;;;;;24.09;48.12;97561.50;5025185;28;20197;-86
2021/08/06 21:00:42;;;;;;;0.93;0.83;;;;;;;24.10;48.36;97555.16;5040346;28;20201;-86
2021/08/06 21:03:09;;;;;;;0.60;0.60;;;;;;;24.09;48.25;97558.84;5040785;28;20189;-86
2021/08/06 21:05:36;;;;;;;0.73;0.70;;;;;;;24.15;48.27;97556.34;5041160;28;20547;-86
2021/08/06 21:08:05;;;;;;;0.90;0.80;;;;;;;24.18;48.14;97563.88;5041242;28;20574;-85
2021/08/06 21:10:33;;;;;;;0.60;0.60;;;;;;;24.12;48.29;97554.91;5041828;28;20197;-85
2021/08/06 21:12:59;;;;;;;1.70;0.80;;;;;;;24.08;48.24;97559.88;5040622;28;20189;-86
2021/08/06 21:15:26;;;;;;;0.70;0.70;;;;;;;24.09;48.29;97556.19;5024065;28;20205;-86
2021/08/06 21:17:52;;;;;;;0.50;0.50;;;;;;;24.05;48.64;97563.00;5057817;28;20189;-85
2021/08/06 21:20:19;;;;;;;0.77;0.77;;;;;;;24.05;48.42;97555.00;5040168;28;20649;-85
2021/08/06 21:22:47;;;;;;;1.67;0.80;;;;;;;24.03;48.66;97545.59;5041410;28;20185;-85
2021/08/06 21:25:14;;;;;;;0.97;0.90;;;;;;;24.05;48.59;97555.00;5041064;28;20185;-86
2021/08/06 21:27:42;;;;;;;0.90;0.77;;;;;;;23.98;48.67;97548.88;5041342;28;20263;-86
2021/08/06 21:30:11;;;;;;;1.90;0.60;;;;;;;23.94;48.77;97542.34;5059030;28;20280;-86
2021/08/06 21:32:38;;;;;;;0.80;0.80;;;;;;;23.92;48.74;97547.09;5047585;28;20487;-86
2021/08/06 21:35:05;;;;;;;0.70;0.70;;;;;;;23.92;48.75;97545.22;5049770;28;20197;-86
2021/08/06 21:37:33;;;;;;;1.10;0.70;;;;;;;23.92;48.67;97547.09;5056928;28;20185;-86
2021/08/06 21:39:59;;;;;;;0.70;0.70;;;;;;;23.93;48.60;97543.38;5039819;28;20194;-86
2021/08/06 21:42:26;;;;;;;0.63;0.63;;;;;;;23.89;48.45;97542.19;5058269;28;20622;-86
2021/08/06 21:44:52;;;;;;;0.90;0.73;;;;;;;23.98;48.62;97542.75;5039986;28;20196;-86
2021/08/06 21:47:19;;;;;;;0.60;0.60;;;;;;;23.91;48.80;97540.94;5039527;28;20217;-86
2021/08/06 21:49:46;;;;;;;0.77;0.70;;;;;;;23.90;48.67;97546.50;5039419;28;20189;-86
2021/08/06 21:52:12;;;;;;;0.70;0.60;;;;;;;23.89;48.63;97544.88;5057146;28;20197;-86
2021/08/06 21:54:39;;;;;;;0.70;0.70;;;;;;;23.87;48.72;97538.91;5039660;28;20202;-86
2021/08/06 21:57:05;;;;;;;0.80;0.80;;;;;;;23.88;48.58;97544.03;5039403;28;20235;-86
2021/08/06 21:59:32;;;;;;;0.70;0.70;;;;;;;23.87;48.64;97541.56;5057157;28;20189;-86
2021/08/06 22:01:59;;;;;;;0.60;0.60;;;;;;;23.87;48.52;97542.41;5039271;28;20256;-86
2021/08/06 22:04:29;;;;;;;0.70;0.70;;;;;;;23.85;48.69;97540.97;5040057;28;20181;-86
2021/08/06 22:06:56;;;;;;;0.60;0.60;;;;;;;23.79;48.91;97546.16;5039033;28;20217;-86
2021/08/06 22:09:22;;;;;;;0.67;0.67;;;;;;;23.83;48.51;97541.22;5039379;28;20192;-86
2021/08/06 22:11:49;;;;;;;0.80;0.80;;;;;;;23.88;48.58;97548.53;5056728;28;20268;-86
2021/08/06 22:14:15;;;;;;;0.67;0.67;;;;;;;23.89;48.35;97539.53;5039229;28;20204;-86
2021/08/06 22:16:42;;;;;;;0.70;0.70;;;;;;;23.88;48.64;97543.22;5039873;28;20569;-86
2021/08/06 22:19:09;;;;;;;0.70;0.70;;;;;;;23.89;48.51;97544.88;5039230;28;20201;-86
2021/08/06 22:21:35;;;;;;;2.07;0.80;;;;;;;23.89;48.56;97544.88;5039157;28;20194;-86
2021/08/06 22:24:02;;;;;;;0.83;0.70;;;;;;;23.89;48.46;97548.34;5039215;28;20255;-86
2021/08/06 22:26:28;;;;;;;0.80;0.80;;;;;;;23.90;48.35;97546.50;5038748;28;20224;-86
2021/08/06 22:28:55;;;;;;;0.93;0.60;;;;;;;23.87;48.39;97536.25;5056396;28;20185;-86
2021/08/06 22:31:22;;;;;;;0.70;0.70;;;;;;;23.85;48.71;97539.16;5038845;28;20542;-86
2021/08/06 22:33:48;;;;;;;0.77;0.77;;;;;;;23.87;48.36;97544.25;5056157;28;20274;-86
2021/08/06 22:36:15;;;;;;;0.90;0.70;;;;;;;23.85;48.59;97546.31;5038616;28;20197;-86
2021/08/06 22:38:41;;;;;;;0.60;0.60;;;;;;;23.86;48.39;97538.13;5038864;28;20193;-86
2021/08/06 22:41:08;;;;;;;0.50;0.50;;;;;;;23.85;48.53;97541.81;5056095;28;20251;-86
2021/08/06 22:43:34;;;;;;;0.60;0.60;;;;;;;23.85;48.37;97536.50;5038698;28;20185;-86
2021/08/06 22:46:01;;;;;;;1.00;0.90;;;;;;;23.86;48.34;97535.44;5038531;28;20193;-86
2021/08/06 22:48:27;;;;;;;0.83;0.60;;;;;;;23.89;48.44;97536.88;5037496;28;20197;-86
2021/08/06 22:50:54;;;;;;;0.67;0.67;;;;;;;23.85;48.47;97541.81;5038348;28;20193;-86
2021/08/06 22:53:20;;;;;;;0.70;0.70;;;;;;;23.89;48.20;97539.53;5055921;28;20204;-86
2021/08/06 22:55:47;;;;;;;1.00;0.90;;;;;;;23.93;48.26;97543.38;5038279;28;20197;-86
2021/08/06 22:58:13;;;;;;;2.00;0.53;;;;;;;23.95;47.89;97538.66;5021680;28;20569;-87
2021/08/06 23:00:40;;;;;;;0.93;0.73;;;;;;;23.97;47.93;97536.56;5021823;28;20270;-87
2021/08/06 23:03:07;;;;;;;0.80;0.70;;;;;;;23.96;48.08;97537.63;5038111;28;20205;-87
2021/08/06 23:05:34;;;;;;;0.73;0.60;;;;;;;23.91;48.28;97548.13;5038141;28;20196;-86
2021/08/06 23:08:00;;;;;;;0.57;0.57;;;;;;;23.89;48.44;97535.00;5037835;28;20213;-86
2021/08/06 23:10:27;;;;;;;0.97;0.70;;;;;;;23.91;48.32;97532.13;5038211;28;20207;-86
2021/08/06 23:12:53;;;;;;;1.17;0.70;;;;;;;23.89;48.21;97519.03;5038210;28;20247;-86
2021/08/06 23:15:20;;;;;;;0.80;0.80;;;;;;;23.88;48.44;97522.72;5037907;28;20212;-86
2021/08/06 23:17:46;;;;;;;1.13;0.80;;;;;;;23.92;48.05;97528.44;5055451;28;20190;-86
2021/08/06 23:20:13;;;;;;;0.60;0.60;;;;;;;23.94;47.98;97518.38;5038553;28;20488;-86
2021/08/06 23:22:40;;;;;;;2.53;0.70;;;;;;;23.95;48.11;97528.00;5037755;28;20258;-84
2021/08/06 23:25:07;;;;;;;1.00;0.53;;;;;;;23.90;48.23;97533.16;5037678;28;20197;-84
2021/08/06 23:27:34;;;;;;;0.70;0.70;;;;;;;23.92;48.49;97537.22;5037753;28;20685;-84
2021/08/06 23:30:00;;;;;;;1.07;0.87;;;;;;;23.89;48.18;97537.66;5037556;28;20201;-84
2021/08/06 23:32:27;;;;;;;0.93;0.70;;;;;;;24.14;47.67;97533.38;5037630;28;20623;-85
2021/08/06 23:34:53;;;;;;;0.70;0.70;;;;;;;24.23;47.15;97532.06;5055127;28;20618;-85
2021/08/06 23:37:20;;;;;;;0.50;0.50;;;;;;;23.89;48.11;97537.66;5038045;28;20247;-85
2021/08/06 23:39:46;;;;;;;0.60;0.60;;;;;;;23.84;48.17;97531.38;5037826;28;20622;-86
2021/08/06 23:42:13;;;;;;;0.57;0.57;;;;;;;23.78;48.43;97528.53;5054942;28;20200;-85
2021/08/06 23:44:39;;;;;;;0.97;0.60;;;;;;;23.75;48.27;97539.66;5021199;28;20204;-85
2021/08/06 23:47:06;;;;;;;0.70;0.70;;;;;;;24.07;47.78;97531.59;5037538;28;20214;-85
2021/08/06 23:49:32;;;;;;;0.50;0.50;;;;;;;23.84;47.88;97534.84;5054952;28;20212;-85
2021/08/06 23:51:59;;;;;;;0.70;0.70;;;;;;;23.82;48.27;97532.41;5037384;28;20220;-85
2021/08/06 23:54:25;;;;;;;0.57;0.57;;;;;;;23.86;48.33;97529.28;5037362;28;20208;-85
2021/08/06 23:56:52;;;;;;;0.97;0.60;;;;;;;23.88;48.06;97521.88;5054864;28;20196;-85
2021/08/06 23:59:18;;;;;;;0.57;0.57;;;;;;;23.88;47.86;97520.06;5037143;28;20352;-85
